sensor_id;sensor_type;location;lat;lon;timestamp;pressure;altitude;pressure_sealevel;temperature;humidity
63535;BME280;55128;50.230;18.944;2023-02-13T00:04:25;100417.84;;;2.56;75.87
63535;BME280;55128;50.230;18.944;2023-02-13T00:09:25;100418.63;;;2.50;76.23
63535;BME280;55128;50.230;18.944;2023-02-13T00:14:25;100423.16;;;2.61;76.09
63535;BME280;55128;50.230;18.944;2023-02-13T00:19:26;100423.47;;;2.81;75.51
63535;BME280;55128;50.230;18.944;2023-02-13T00:24:26;100421.69;;;2.78;75.54
63535;BME280;55128;50.230;18.944;2023-02-13T00:29:27;100419.06;;;2.78;75.57
63535;BME280;55128;50.230;18.944;2023-02-13T00:34:27;100414.22;;;2.48;76.36
63535;BME280;55128;50.230;18.944;2023-02-13T00:39:28;100417.09;;;2.66;76.20
63535;BME280;55128;50.230;18.944;2023-02-13T00:44:28;100422.19;;;2.54;76.63
63535;BME280;55128;50.230;18.944;2023-02-13T00:49:28;100410.81;;;2.55;76.46
63535;BME280;55128;50.230;18.944;2023-02-13T00:54:29;100408.50;;;2.75;76.49
63535;BME280;55128;50.230;18.944;2023-02-13T00:59:29;100405.13;;;2.82;76.35
63535;BME280;55128;50.230;18.944;2023-02-13T01:04:30;100406.75;;;2.72;76.15
63535;BME280;55128;50.230;18.944;2023-02-13T01:09:30;100409.63;;;2.91;75.68
63535;BME280;55128;50.230;18.944;2023-02-13T01:14:30;100391.25;;;2.92;75.47
63535;BME280;55128;50.230;18.944;2023-02-13T01:19:31;100399.13;;;2.89;75.99
63535;BME280;55128;50.230;18.944;2023-02-13T01:24:31;100391.19;;;2.86;76.09
63535;BME280;55128;50.230;18.944;2023-02-13T01:29:33;100385.00;;;2.80;76.49
63535;BME280;55128;50.230;18.944;2023-02-13T01:34:36;100378.19;;;2.94;75.66
63535;BME280;55128;50.230;18.944;2023-02-13T01:39:36;100376.34;;;2.88;76.00
63535;BME280;55128;50.230;18.944;2023-02-13T01:44:52;100377.97;;;2.79;76.42
63535;BME280;55128;50.230;18.944;2023-02-13T01:50:07;100368.47;;;2.85;76.52
63535;BME280;55128;50.230;18.944;2023-02-13T01:55:10;100366.81;;;2.94;76.48
63535;BME280;55128;50.230;18.944;2023-02-13T02:00:15;100368.69;;;3.04;76.06
63535;BME280;55128;50.230;18.944;2023-02-13T02:05:18;100359.84;;;2.96;75.99
63535;BME280;55128;50.230;18.944;2023-02-13T02:10:20;100360.00;;;3.09;76.21
63535;BME280;55128;50.230;18.944;2023-02-13T02:15:20;100358.28;;;3.10;76.58
63535;BME280;55128;50.230;18.944;2023-02-13T02:21:01;100353.84;;;3.04;76.83
63535;BME280;55128;50.230;18.944;2023-02-13T02:37:05;100342.66;;;3.19;77.89
63535;BME280;55128;50.230;18.944;2023-02-13T02:42:32;100350.78;;;3.42;77.58
63535;BME280;55128;50.230;18.944;2023-02-13T02:48:06;100349.16;;;3.54;76.81
63535;BME280;55128;50.230;18.944;2023-02-13T03:03:59;100355.28;;;3.54;77.00
63535;BME280;55128;50.230;18.944;2023-02-13T03:09:25;100364.97;;;3.60;77.21
63535;BME280;55128;50.230;18.944;2023-02-13T03:14:45;100363.22;;;3.59;77.28
63535;BME280;55128;50.230;18.944;2023-02-13T03:25:35;100362.38;;;3.63;79.34
63535;BME280;55128;50.230;18.944;2023-02-13T03:41:20;100357.28;;;3.80;79.54
63535;BME280;55128;50.230;18.944;2023-02-13T03:46:29;100355.59;;;3.83;79.73
63535;BME280;55128;50.230;18.944;2023-02-13T03:51:41;100358.19;;;3.82;79.36
63535;BME280;55128;50.230;18.944;2023-02-13T03:56:44;100350.34;;;3.88;79.82
63535;BME280;55128;50.230;18.944;2023-02-13T04:07:11;100353.13;;;4.02;79.80
63535;BME280;55128;50.230;18.944;2023-02-13T04:12:39;100354.88;;;4.00;80.13
63535;BME280;55128;50.230;18.944;2023-02-13T04:17:46;100359.28;;;4.05;80.37
63535;BME280;55128;50.230;18.944;2023-02-13T04:22:49;100358.34;;;3.99;80.98
63535;BME280;55128;50.230;18.944;2023-02-13T04:27:49;100353.13;;;4.05;80.93
63535;BME280;55128;50.230;18.944;2023-02-13T04:32:50;100347.91;;;4.06;80.05
63535;BME280;55128;50.230;18.944;2023-02-13T04:37:52;100346.09;;;4.01;80.83
63535;BME280;55128;50.230;18.944;2023-02-13T04:42:52;100345.25;;;4.06;80.37
63535;BME280;55128;50.230;18.944;2023-02-13T04:47:54;100351.41;;;4.08;79.93
63535;BME280;55128;50.230;18.944;2023-02-13T04:52:56;100351.41;;;4.07;79.93
63535;BME280;55128;50.230;18.944;2023-02-13T04:57:57;100346.19;;;4.15;80.21
63535;BME280;55128;50.230;18.944;2023-02-13T05:03:05;100349.66;;;4.06;80.63
63535;BME280;55128;50.230;18.944;2023-02-13T05:08:07;100348.91;;;4.22;79.76
63535;BME280;55128;50.230;18.944;2023-02-13T05:13:08;100347.13;;;4.17;79.77
63535;BME280;55128;50.230;18.944;2023-02-13T05:18:08;100345.31;;;4.14;79.86
63535;BME280;55128;50.230;18.944;2023-02-13T05:23:13;100345.28;;;4.08;79.62
63535;BME280;55128;50.230;18.944;2023-02-13T05:28:22;100345.31;;;4.09;79.88
63535;BME280;55128;50.230;18.944;2023-02-13T05:33:41;100350.59;;;4.14;79.91
63535;BME280;55128;50.230;18.944;2023-02-13T05:38:42;100343.59;;;4.16;79.54
63535;BME280;55128;50.230;18.944;2023-02-13T05:43:42;100338.38;;;4.24;79.77
63535;BME280;55128;50.230;18.944;2023-02-13T05:48:43;100340.91;;;4.10;79.42
63535;BME280;55128;50.230;18.944;2023-02-13T05:53:43;100339.84;;;3.85;80.55
63535;BME280;55128;50.230;18.944;2023-02-13T05:58:43;100345.31;;;4.13;80.35
63535;BME280;55128;50.230;18.944;2023-02-13T06:03:44;100346.22;;;4.13;80.02
63535;BME280;55128;50.230;18.944;2023-02-13T06:08:44;100353.28;;;4.23;79.81
63535;BME280;55128;50.230;18.944;2023-02-13T06:13:45;100359.34;;;4.12;79.10
63535;BME280;55128;50.230;18.944;2023-02-13T06:18:45;100363.81;;;4.23;78.59
63535;BME280;55128;50.230;18.944;2023-02-13T06:23:45;100363.81;;;4.23;78.57
63535;BME280;55128;50.230;18.944;2023-02-13T06:28:46;100361.97;;;4.16;78.96
63535;BME280;55128;50.230;18.944;2023-02-13T06:33:46;100365.50;;;4.15;79.32
63535;BME280;55128;50.230;18.944;2023-02-13T06:38:46;100366.41;;;4.19;79.00
63535;BME280;55128;50.230;18.944;2023-02-13T06:43:47;100366.34;;;4.14;78.48
63535;BME280;55128;50.230;18.944;2023-02-13T06:48:47;100373.59;;;4.41;78.58
63535;BME280;55128;50.230;18.944;2023-02-13T06:53:47;100363.97;;;4.48;78.30
63535;BME280;55128;50.230;18.944;2023-02-13T06:58:48;100370.28;;;4.70;78.45
63535;BME280;55128;50.230;18.944;2023-02-13T07:03:48;100372.31;;;5.28;78.18
63535;BME280;55128;50.230;18.944;2023-02-13T07:08:48;100378.38;;;5.12;77.98
63535;BME280;55128;50.230;18.944;2023-02-13T07:13:54;100384.53;;;5.11;77.81
63535;BME280;55128;50.230;18.944;2023-02-13T07:18:57;100382.78;;;5.14;77.52
63535;BME280;55128;50.230;18.944;2023-02-13T07:23:58;100378.53;;;5.41;77.67
63535;BME280;55128;50.230;18.944;2023-02-13T07:28:59;100368.13;;;6.04;75.57
63535;BME280;55128;50.230;18.944;2023-02-13T07:34:05;100368.16;;;6.33;75.11
63535;BME280;55128;50.230;18.944;2023-02-13T07:39:05;100374.88;;;7.53;71.90
63535;BME280;55128;50.230;18.944;2023-02-13T07:44:07;100380.16;;;7.53;69.99
63535;BME280;55128;50.230;18.944;2023-02-13T07:49:07;100367.81;;;7.55;70.17
63535;BME280;55128;50.230;18.944;2023-02-13T07:54:07;100368.47;;;7.88;69.38
63535;BME280;55128;50.230;18.944;2023-02-13T07:59:09;100371.03;;;8.00;68.24
63535;BME280;55128;50.230;18.944;2023-02-13T08:04:10;100374.31;;;8.33;68.60
63535;BME280;55128;50.230;18.944;2023-02-13T08:09:19;100373.09;;;8.72;67.38
63535;BME280;55128;50.230;18.944;2023-02-13T08:14:38;100365.63;;;8.15;66.94
63535;BME280;55128;50.230;18.944;2023-02-13T08:19:38;100370.31;;;7.75;68.68
63535;BME280;55128;50.230;18.944;2023-02-13T08:24:39;100379.25;;;7.57;69.98
63535;BME280;55128;50.230;18.944;2023-02-13T08:29:39;100380.16;;;7.50;70.09
63535;BME280;55128;50.230;18.944;2023-02-13T08:34:40;100373.19;;;7.36;70.38
63535;BME280;55128;50.230;18.944;2023-02-13T08:39:40;100377.59;;;7.34;70.65
63535;BME280;55128;50.230;18.944;2023-02-13T08:44:40;100377.63;;;7.24;71.21
63535;BME280;55128;50.230;18.944;2023-02-13T08:49:41;100387.31;;;7.22;71.96
63535;BME280;55128;50.230;18.944;2023-02-13T08:54:42;100375.03;;;7.19;72.32
63535;BME280;55128;50.230;18.944;2023-02-13T08:59:42;100372.41;;;7.07;73.08
63535;BME280;55128;50.230;18.944;2023-02-13T09:04:43;100366.97;;;7.40;73.73
63535;BME280;55128;50.230;18.944;2023-02-13T09:09:43;100376.59;;;7.54;72.86
63535;BME280;55128;50.230;18.944;2023-02-13T09:14:43;100368.78;;;7.29;73.25
63535;BME280;55128;50.230;18.944;2023-02-13T09:19:45;100376.81;;;7.06;74.54
63535;BME280;55128;50.230;18.944;2023-02-13T09:24:46;100372.34;;;7.27;74.11
63535;BME280;55128;50.230;18.944;2023-02-13T09:29:46;100376.69;;;7.42;74.62
63535;BME280;55128;50.230;18.944;2023-02-13T09:34:47;100385.31;;;7.71;73.72
63535;BME280;55128;50.230;18.944;2023-02-13T09:39:47;100385.31;;;7.77;73.05
63535;BME280;55128;50.230;18.944;2023-02-13T09:44:48;100375.47;;;7.95;72.70
63535;BME280;55128;50.230;18.944;2023-02-13T09:49:54;100378.34;;;7.61;74.44
63535;BME280;55128;50.230;18.944;2023-02-13T09:54:56;100379.97;;;7.85;74.02
63535;BME280;55128;50.230;18.944;2023-02-13T10:00:13;100371.03;;;8.00;74.21
63535;BME280;55128;50.230;18.944;2023-02-13T10:10:35;100367.41;;;8.13;72.91
63535;BME280;55128;50.230;18.944;2023-02-13T10:15:47;100362.22;;;8.01;73.56
63535;BME280;55128;50.230;18.944;2023-02-13T10:20:53;100361.56;;;7.68;74.36
63535;BME280;55128;50.230;18.944;2023-02-13T10:26:00;100355.41;;;7.60;75.06
63535;BME280;55128;50.230;18.944;2023-02-13T10:31:14;100345.78;;;7.53;74.98
63535;BME280;55128;50.230;18.944;2023-02-13T10:36:36;100339.59;;;7.55;74.65
63535;BME280;55128;50.230;18.944;2023-02-13T10:47:10;100322.06;;;7.37;75.42
63535;BME280;55128;50.230;18.944;2023-02-13T10:52:55;100319.56;;;7.16;75.71
63535;BME280;55128;50.230;18.944;2023-02-13T10:58:16;100302.84;;;7.11;76.07
63535;BME280;55128;50.230;18.944;2023-02-13T11:03:21;100310.75;;;7.14;76.60
63535;BME280;55128;50.230;18.944;2023-02-13T11:08:31;100312.53;;;7.10;76.84
63535;BME280;55128;50.230;18.944;2023-02-13T11:13:31;100301.84;;;7.32;76.67
63535;BME280;55128;50.230;18.944;2023-02-13T11:18:35;100295.53;;;7.59;75.92
63535;BME280;55128;50.230;18.944;2023-02-13T11:23:41;100281.56;;;7.38;76.01
63535;BME280;55128;50.230;18.944;2023-02-13T11:28:49;100285.03;;;7.50;75.80
63535;BME280;55128;50.230;18.944;2023-02-13T11:33:53;100280.53;;;7.63;76.50
63535;BME280;55128;50.230;18.944;2023-02-13T11:39:18;100277.84;;;7.66;75.96
63535;BME280;55128;50.230;18.944;2023-02-13T11:44:26;100277.78;;;7.76;75.83
63535;BME280;55128;50.230;18.944;2023-02-13T11:49:37;100280.41;;;7.79;75.58
63535;BME280;55128;50.230;18.944;2023-02-13T11:54:43;100268.97;;;7.77;75.95
63535;BME280;55128;50.230;18.944;2023-02-13T11:59:45;100261.03;;;7.77;76.52
63535;BME280;55128;50.230;18.944;2023-02-13T12:04:47;100261.91;;;7.79;76.39
63535;BME280;55128;50.230;18.944;2023-02-13T12:10:00;100265.50;;;7.69;76.23
63535;BME280;55128;50.230;18.944;2023-02-13T12:15:15;100260.38;;;7.45;77.66
63535;BME280;55128;50.230;18.944;2023-02-13T12:20:16;100250.66;;;7.51;77.76
63535;BME280;55128;50.230;18.944;2023-02-13T12:25:30;100255.88;;;7.62;77.14
63535;BME280;55128;50.230;18.944;2023-02-13T12:30:54;100248.00;;;7.53;77.35
63535;BME280;55128;50.230;18.944;2023-02-13T12:47:17;100253.63;;;6.97;78.41
63535;BME280;55128;50.230;18.944;2023-02-13T13:09:09;100245.66;;;7.10;78.76
63535;BME280;55128;50.230;18.944;2023-02-13T13:19:48;100244.72;;;7.14;79.02
63535;BME280;55128;50.230;18.944;2023-02-13T13:30:18;100243.72;;;7.33;79.09
63535;BME280;55128;50.230;18.944;2023-02-13T13:35:21;100244.69;;;7.17;79.57
63535;BME280;55128;50.230;18.944;2023-02-13T13:40:33;100245.53;;;7.28;79.36
63535;BME280;55128;50.230;18.944;2023-02-13T13:46:14;100244.50;;;7.51;79.07
63535;BME280;55128;50.230;18.944;2023-02-13T13:51:17;100240.03;;;7.54;78.49
63535;BME280;55128;50.230;18.944;2023-02-13T13:56:18;100237.50;;;7.45;78.62
63535;BME280;55128;50.230;18.944;2023-02-13T14:11:43;100234.94;;;7.33;78.66
63535;BME280;55128;50.230;18.944;2023-02-13T14:16:45;100241.09;;;7.32;78.91
63535;BME280;55128;50.230;18.944;2023-02-13T14:21:46;100230.50;;;7.39;77.85
63535;BME280;55128;50.230;18.944;2023-02-13T14:26:52;100235.91;;;7.18;78.05
63535;BME280;55128;50.230;18.944;2023-02-13T14:32:00;100240.44;;;6.91;77.53
63535;BME280;55128;50.230;18.944;2023-02-13T14:37:19;100238.72;;;6.81;76.67
63535;BME280;55128;50.230;18.944;2023-02-13T14:42:25;100236.13;;;6.73;77.14
63535;BME280;55128;50.230;18.944;2023-02-13T14:52:35;100227.38;;;6.67;76.81
63535;BME280;55128;50.230;18.944;2023-02-13T14:57:50;100227.38;;;6.62;77.40
63535;BME280;55128;50.230;18.944;2023-02-13T15:02:53;100222.09;;;6.64;77.88
63535;BME280;55128;50.230;18.944;2023-02-13T15:08:04;100221.28;;;6.48;76.88
63535;BME280;55128;50.230;18.944;2023-02-13T15:13:33;100216.84;;;6.54;77.47
63535;BME280;55128;50.230;18.944;2023-02-13T15:19:01;100215.13;;;6.41;78.02
63535;BME280;55128;50.230;18.944;2023-02-13T15:24:02;100215.09;;;6.46;78.27
63535;BME280;55128;50.230;18.944;2023-02-13T15:29:15;100220.41;;;6.44;77.83
63535;BME280;55128;50.230;18.944;2023-02-13T15:34:36;100209.88;;;6.35;78.41
63535;BME280;55128;50.230;18.944;2023-02-13T15:39:36;100199.31;;;6.41;77.23
63535;BME280;55128;50.230;18.944;2023-02-13T15:44:37;100210.81;;;6.08;77.10
63535;BME280;55128;50.230;18.944;2023-02-13T15:49:43;100220.47;;;5.89;77.38
63535;BME280;55128;50.230;18.944;2023-02-13T15:54:53;100207.28;;;5.95;77.75
63535;BME280;55128;50.230;18.944;2023-02-13T15:59:54;100215.22;;;5.84;77.40
63535;BME280;55128;50.230;18.944;2023-02-13T16:04:56;100219.63;;;5.82;77.64
63535;BME280;55128;50.230;18.944;2023-02-13T16:10:17;100222.25;;;5.57;78.09
63535;BME280;55128;50.230;18.944;2023-02-13T16:15:27;100224.00;;;5.43;77.81
63535;BME280;55128;50.230;18.944;2023-02-13T16:20:29;100225.75;;;5.24;77.43
63535;BME280;55128;50.230;18.944;2023-02-13T16:25:37;100217.84;;;5.25;77.50
63535;BME280;55128;50.230;18.944;2023-02-13T16:30:40;100225.72;;;5.18;77.85
63535;BME280;55128;50.230;18.944;2023-02-13T16:40:47;100231.88;;;5.26;78.17
63535;BME280;55128;50.230;18.944;2023-02-13T16:45:48;100228.38;;;5.25;78.04
63535;BME280;55128;50.230;18.944;2023-02-13T16:50:54;100238.94;;;5.41;77.53
63535;BME280;55128;50.230;18.944;2023-02-13T16:56:00;100236.28;;;5.39;77.85
63535;BME280;55128;50.230;18.944;2023-02-13T17:01:02;100232.78;;;5.47;77.40
63535;BME280;55128;50.230;18.944;2023-02-13T17:06:04;100211.72;;;5.47;77.75
63535;BME280;55128;50.230;18.944;2023-02-13T17:11:06;100210.84;;;5.49;76.78
63535;BME280;55128;50.230;18.944;2023-02-13T17:16:08;100210.81;;;5.46;76.82
63535;BME280;55128;50.230;18.944;2023-02-13T17:21:09;100207.31;;;5.47;76.68
63535;BME280;55128;50.230;18.944;2023-02-13T17:26:09;100204.72;;;5.42;77.11
63535;BME280;55128;50.230;18.944;2023-02-13T17:31:10;100197.66;;;5.38;76.63
63535;BME280;55128;50.230;18.944;2023-02-13T17:36:12;100201.16;;;5.25;76.93
63535;BME280;55128;50.230;18.944;2023-02-13T17:41:16;100186.25;;;5.30;77.11
63535;BME280;55128;50.230;18.944;2023-02-13T17:46:16;100196.78;;;5.36;76.90
63535;BME280;55128;50.230;18.944;2023-02-13T17:51:17;100202.94;;;5.37;76.58
63535;BME280;55128;50.230;18.944;2023-02-13T17:56:17;100191.53;;;5.42;76.54
63535;BME280;55128;50.230;18.944;2023-02-13T18:01:17;100179.22;;;5.41;76.60
63535;BME280;55128;50.230;18.944;2023-02-13T18:06:18;100183.63;;;5.42;76.30
63535;BME280;55128;50.230;18.944;2023-02-13T18:11:18;100191.50;;;5.35;76.76
63535;BME280;55128;50.230;18.944;2023-02-13T18:16:18;100192.38;;;5.46;76.92
63535;BME280;55128;50.230;18.944;2023-02-13T18:21:21;100174.84;;;5.39;77.21
63535;BME280;55128;50.230;18.944;2023-02-13T18:26:22;100139.72;;;5.40;76.83
63535;BME280;55128;50.230;18.944;2023-02-13T18:31:22;100180.97;;;5.30;77.15
63535;BME280;55128;50.230;18.944;2023-02-13T18:36:23;100208.22;;;5.37;77.14
63535;BME280;55128;50.230;18.944;2023-02-13T18:41:23;100200.31;;;5.35;77.32
63535;BME280;55128;50.230;18.944;2023-02-13T18:46:23;100200.31;;;5.41;77.55
63535;BME280;55128;50.230;18.944;2023-02-13T18:51:24;100209.97;;;5.33;78.05
63535;BME280;55128;50.230;18.944;2023-02-13T18:56:24;100217.84;;;5.36;78.02
63535;BME280;55128;50.230;18.944;2023-02-13T19:01:24;100203.81;;;5.45;77.81
63535;BME280;55128;50.230;18.944;2023-02-13T19:06:25;100211.72;;;5.45;78.39
63535;BME280;55128;50.230;18.944;2023-02-13T19:11:26;100230.16;;;5.53;78.38
63535;BME280;55128;50.230;18.944;2023-02-13T19:16:28;100228.41;;;5.49;78.22
63535;BME280;55128;50.230;18.944;2023-02-13T19:21:31;100233.66;;;5.47;77.95
63535;BME280;55128;50.230;18.944;2023-02-13T19:26:32;100228.41;;;5.41;78.28
63535;BME280;55128;50.230;18.944;2023-02-13T19:31:33;100246.81;;;5.52;77.97
63535;BME280;55128;50.230;18.944;2023-02-13T19:36:33;100243.31;;;5.50;78.23
63535;BME280;55128;50.230;18.944;2023-02-13T19:41:34;100242.44;;;5.43;78.41
63535;BME280;55128;50.230;18.944;2023-02-13T19:46:35;100238.06;;;5.37;78.21
63535;BME280;55128;50.230;18.944;2023-02-13T19:51:37;100231.91;;;5.44;78.24
63535;BME280;55128;50.230;18.944;2023-02-13T19:56:38;100242.44;;;5.46;78.55
63535;BME280;55128;50.230;18.944;2023-02-13T20:01:39;100243.31;;;5.53;78.20
63535;BME280;55128;50.230;18.944;2023-02-13T20:06:44;100238.91;;;5.27;79.04
63535;BME280;55128;50.230;18.944;2023-02-13T20:11:44;100240.69;;;5.39;78.83
63535;BME280;55128;50.230;18.944;2023-02-13T20:16:45;100245.94;;;5.43;78.62
63535;BME280;55128;50.230;18.944;2023-02-13T20:21:45;100258.25;;;5.44;78.42
63535;BME280;55128;50.230;18.944;2023-02-13T20:26:46;100277.53;;;5.33;78.61
63535;BME280;55128;50.230;18.944;2023-02-13T20:31:46;100283.66;;;5.24;79.26
63535;BME280;55128;50.230;18.944;2023-02-13T20:36:47;100281.06;;;5.38;79.00
63535;BME280;55128;50.230;18.944;2023-02-13T20:41:48;100292.47;;;5.38;78.45
63535;BME280;55128;50.230;18.944;2023-02-13T20:46:49;100282.84;;;5.47;78.39
63535;BME280;55128;50.230;18.944;2023-02-13T20:51:50;100280.19;;;5.50;78.17
63535;BME280;55128;50.230;18.944;2023-02-13T20:56:50;100281.97;;;5.52;77.99
63535;BME280;55128;50.230;18.944;2023-02-13T21:01:51;100277.53;;;5.42;78.64
63535;BME280;55128;50.230;18.944;2023-02-13T21:06:51;100281.97;;;5.51;78.34
63535;BME280;55128;50.230;18.944;2023-02-13T21:11:51;100275.81;;;5.53;78.10
63535;BME280;55128;50.230;18.944;2023-02-13T21:16:52;100273.16;;;5.41;78.24
63535;BME280;55128;50.230;18.944;2023-02-13T21:21:52;100264.38;;;5.43;78.15
63535;BME280;55128;50.230;18.944;2023-02-13T21:26:56;100259.13;;;5.50;78.15
63535;BME280;55128;50.230;18.944;2023-02-13T21:31:56;100266.16;;;5.43;78.21
63535;BME280;55128;50.230;18.944;2023-02-13T21:36:56;100261.78;;;5.48;78.04
63535;BME280;55128;50.230;18.944;2023-02-13T21:41:57;100267.88;;;5.30;78.20
63535;BME280;55128;50.230;18.944;2023-02-13T21:46:57;100259.09;;;5.33;78.12
63535;BME280;55128;50.230;18.944;2023-02-13T21:51:58;100244.19;;;5.24;78.85
63535;BME280;55128;50.230;18.944;2023-02-13T21:56:58;100245.94;;;5.28;78.30
63535;BME280;55128;50.230;18.944;2023-02-13T22:01:59;100245.06;;;5.32;78.57
63535;BME280;55128;50.230;18.944;2023-02-13T22:07:00;100248.56;;;5.28;78.34
63535;BME280;55128;50.230;18.944;2023-02-13T22:12:01;100237.97;;;5.06;78.99
63535;BME280;55128;50.230;18.944;2023-02-13T22:17:02;100250.28;;;5.17;78.82
63535;BME280;55128;50.230;18.944;2023-02-13T22:22:03;100251.22;;;5.31;78.50
63535;BME280;55128;50.230;18.944;2023-02-13T22:27:03;100257.34;;;5.30;78.14
63535;BME280;55128;50.230;18.944;2023-02-13T22:32:04;100249.41;;;5.13;78.67
63535;BME280;55128;50.230;18.944;2023-02-13T22:37:04;100244.16;;;5.19;78.62
63535;BME280;55128;50.230;18.944;2023-02-13T22:42:05;100245.00;;;5.12;79.37
63535;BME280;55128;50.230;18.944;2023-02-13T22:47:05;100237.13;;;5.23;79.04
63535;BME280;55128;50.230;18.944;2023-02-13T22:52:06;100233.66;;;5.24;79.28
63535;BME280;55128;50.230;18.944;2023-02-13T22:57:07;100235.41;;;5.28;79.23
63535;BME280;55128;50.230;18.944;2023-02-13T23:02:07;100236.28;;;5.29;79.48
63535;BME280;55128;50.230;18.944;2023-02-13T23:07:07;100236.28;;;5.25;80.05
63535;BME280;55128;50.230;18.944;2023-02-13T23:12:08;100226.63;;;5.31;79.39
63535;BME280;55128;50.230;18.944;2023-02-13T23:17:27;100239.75;;;5.15;79.95
63535;BME280;55128;50.230;18.944;2023-02-13T23:22:46;100241.53;;;5.27;79.72
63535;BME280;55128;50.230;18.944;2023-02-13T23:27:47;100233.63;;;5.27;80.35
63535;BME280;55128;50.230;18.944;2023-02-13T23:32:47;100229.25;;;5.31;79.64
63535;BME280;55128;50.230;18.944;2023-02-13T23:37:48;100233.63;;;5.19;80.03
63535;BME280;55128;50.230;18.944;2023-02-13T23:42:48;100231.84;;;5.20;80.81
63535;BME280;55128;50.230;18.944;2023-02-13T23:47:49;100227.47;;;5.23;80.32
63535;BME280;55128;50.230;18.944;2023-02-13T23:52:49;100235.41;;;5.26;80.09
63535;BME280;55128;50.230;18.944;2023-02-13T23:57:49;100231.00;;;5.22;80.45
